Time;durP1;ratioP1;P1;durP2;ratioP2;P2;SDS_P1;SDS_P2;PMS_P1;PMS_P2;Temp;Humidity;BMP_temperature;BMP_pressure;BME280_temperature;BME280_humidity;BME280_pressure;Samples;Min_cycle;Max_cycle;Signal;HPM_P1;HPM_P2
2024/03/18 00:02:27;;;;;;;57.53;54.80;;;15.70;99.90;;;;;;5061258;28;20060;-71
2024/03/18 00:04:56;;;;;;;65.43;62.33;;;15.70;99.90;;;;;;5037008;28;20402;-71
2024/03/18 00:07:23;;;;;;;48.45;46.15;;;15.70;99.90;;;;;;5056506;28;20033;-72
2024/03/18 00:09:49;;;;;;;28.30;27.00;;;15.70;99.90;;;;;;5060874;28;20036;-71
2024/03/18 00:12:15;;;;;;;26.60;25.35;;;15.70;99.90;;;;;;5053362;28;20391;-71
2024/03/18 00:14:44;;;;;;;22.02;21.02;;;15.60;99.90;;;;;;5052417;28;20037;-84
2024/03/18 00:17:10;;;;;;;21.88;20.88;;;15.60;99.90;;;;;;5072129;28;20029;-85
2024/03/18 00:19:37;;;;;;;26.05;24.85;;;15.70;99.90;;;;;;5054920;28;20064;-85
2024/03/18 00:22:03;;;;;;;39.80;37.95;;;15.70;99.90;;;;;;5052244;28;20033;-84
2024/03/18 00:24:30;;;;;;;22.95;21.90;;;15.80;99.90;;;;;;5053425;28;20037;-85
2024/03/18 00:26:56;;;;;;;22.25;21.25;;;15.80;99.90;;;;;;5049594;28;20037;-85
2024/03/18 00:29:23;;;;;;;17.45;16.65;;;15.80;99.90;;;;;;5058725;28;20052;-85
2024/03/18 00:31:49;;;;;;;19.02;18.13;;;15.80;99.90;;;;;;5052575;28;20033;-84
2024/03/18 00:34:15;;;;;;;32.10;30.60;;;15.80;99.90;;;;;;5047788;28;20045;-84
2024/03/18 00:36:41;;;;;;;29.95;28.55;;;15.90;99.90;;;;;;5065684;28;20025;-85
2024/03/18 00:39:07;;;;;;;33.47;31.90;;;15.90;99.90;;;;;;5057352;28;20043;-84
2024/03/18 00:41:49;;;;;;;32.42;30.92;;;15.80;99.90;;;;;;5057515;28;20040;-84
2024/03/18 00:44:16;;;;;;;26.70;25.45;;;15.80;99.90;;;;;;5068725;28;20045;-85
2024/03/18 00:46:46;;;;;;;28.77;27.42;;;15.80;99.90;;;;;;5052027;28;20041;-84
2024/03/18 00:49:13;;;;;;;23.58;22.48;;;15.80;99.90;;;;;;5033585;28;20036;-84
2024/03/18 00:51:43;;;;;;;28.52;27.23;;;15.80;99.90;;;;;;5051978;28;20029;-84
2024/03/18 00:54:09;;;;;;;20.98;19.98;;;15.90;99.90;;;;;;5034208;28;20041;-84
2024/03/18 00:56:36;;;;;;;23.90;22.77;;;15.80;99.90;;;;;;5055644;28;20032;-86
2024/03/18 00:59:05;;;;;;;21.30;20.30;;;15.80;99.90;;;;;;5054037;28;20363;-85
2024/03/18 01:01:35;;;;;;;20.23;19.30;;;15.70;99.90;;;;;;5051633;28;20033;-84
2024/03/18 01:04:03;;;;;;;20.20;19.30;;;15.70;99.90;;;;;;5052252;28;20029;-81
2024/03/18 01:06:29;;;;;;;19.38;18.48;;;15.80;99.90;;;;;;5059869;28;20045;-82
2024/03/18 01:08:55;;;;;;;17.80;17.00;;;15.70;99.90;;;;;;5070958;28;20032;-83
2024/03/18 01:11:21;;;;;;;19.15;18.25;;;15.70;99.90;;;;;;5060713;28;20037;-84
2024/03/18 01:13:47;;;;;;;18.00;17.20;;;15.70;99.90;;;;;;5051651;28;20048;-84
2024/03/18 01:16:24;;;;;;;20.95;19.98;;;15.60;99.90;;;;;;5059649;28;20532;-83
2024/03/18 01:18:51;;;;;;;18.52;17.67;;;15.60;99.90;;;;;;5052686;28;20028;-85
2024/03/18 01:21:18;;;;;;;17.65;16.85;;;15.60;99.90;;;;;;5059075;28;20048;-84
2024/03/18 01:23:47;;;;;;;24.08;22.98;;;15.60;99.90;;;;;;5067424;28;20045;-86
2024/03/18 01:26:13;;;;;;;16.42;15.68;;;15.50;99.90;;;;;;5058601;28;20037;-85
2024/03/18 01:28:40;;;;;;;17.05;16.25;;;15.50;99.90;;;;;;5067754;28;20378;-84
2024/03/18 01:31:06;;;;;;;21.45;20.45;;;15.40;99.90;;;;;;5051060;28;20040;-73
2024/03/18 01:33:33;;;;;;;18.40;17.52;;;15.40;99.90;;;;;;5052049;28;20040;-73
2024/03/18 01:35:59;;;;;;;24.40;23.25;;;15.30;99.90;;;;;;5059575;28;20037;-73
2024/03/18 01:38:26;;;;;;;20.00;19.10;;;15.30;99.90;;;;;;5052421;28;20113;-73
2024/03/18 01:40:53;;;;;;;22.17;21.17;;;15.30;99.90;;;;;;5057081;28;20048;-73
2024/03/18 01:43:19;;;;;;;21.00;20.02;;;15.20;99.90;;;;;;5065144;28;20488;-73
2024/03/18 01:45:46;;;;;;;33.42;31.88;;;15.30;99.90;;;;;;5050794;28;20029;-73
2024/03/18 01:48:13;;;;;;;23.58;22.48;;;15.20;99.90;;;;;;5048037;28;20060;-73
2024/03/18 01:50:41;;;;;;;22.02;21.02;;;15.20;99.90;;;;;;5040424;28;20021;-73
2024/03/18 01:53:10;;;;;;;24.92;23.77;;;15.10;99.90;;;;;;5052665;28;20052;-73
2024/03/18 01:55:38;;;;;;;24.88;23.73;;;15.10;99.90;;;;;;5040476;28;20037;-73
2024/03/18 01:58:06;;;;;;;72.00;68.57;;;15.10;99.90;;;;;;5046100;28;20056;-73
2024/03/18 02:00:34;;;;;;;32.92;31.38;;;15.00;99.90;;;;;;5049053;28;20401;-73
2024/03/18 02:03:00;;;;;;;38.80;37.00;;;15.00;99.90;;;;;;5050864;28;20045;-73
2024/03/18 02:05:26;;;;;;;38.92;37.13;;;14.90;99.90;;;;;;5050003;28;20048;-73
2024/03/18 02:07:52;;;;;;;24.67;23.52;;;14.90;99.90;;;;;;5031994;28;20029;-73
2024/03/18 02:10:19;;;;;;;37.05;35.20;;;14.90;99.90;;;;;;5037315;28;20040;-73
2024/03/18 02:12:45;;;;;;;47.20;44.95;;;14.90;99.90;;;;;;5031109;28;20034;-73
2024/03/18 02:15:11;;;;;;;28.13;26.80;;;14.90;99.90;;;;;;5030953;28;20033;-73
2024/03/18 02:17:39;;;;;;;38.80;37.00;;;14.80;99.90;;;;;;5031989;28;20045;-73
2024/03/18 02:20:06;;;;;;;56.97;54.30;;;14.50;99.90;;;;;;5032307;28;20402;-73
2024/03/18 02:22:32;;;;;;;94.50;89.93;;;14.60;99.90;;;;;;5050017;28;20044;-73
2024/03/18 02:24:58;;;;;;;104.45;99.45;;;14.50;99.90;;;;;;5050659;28;20646;-73
2024/03/18 02:27:28;;;;;;;61.97;59.05;;;14.50;99.90;;;;;;5032728;28;20029;-73
2024/03/18 02:29:57;;;;;;;63.55;60.53;;;14.50;99.90;;;;;;5047747;28;20045;-73
2024/03/18 02:32:23;;;;;;;158.43;150.75;;;14.60;99.90;;;;;;5032765;28;20044;-73
2024/03/18 02:34:50;;;;;;;62.55;59.58;;;14.50;99.90;;;;;;5035180;28;20049;-87
2024/03/18 02:37:16;;;;;;;35.38;33.72;;;14.50;99.90;;;;;;5039541;28;20036;-86
2024/03/18 02:39:42;;;;;;;31.10;29.65;;;14.60;99.90;;;;;;5055082;28;20029;-87
2024/03/18 02:42:08;;;;;;;20.83;19.83;;;14.50;99.90;;;;;;5042010;28;20028;-87
2024/03/18 02:44:34;;;;;;;27.17;25.90;;;14.50;99.90;;;;;;5043031;28;20046;-87
2024/03/18 02:47:01;;;;;;;27.17;25.88;;;14.50;99.90;;;;;;5034940;28;20033;-87
2024/03/18 02:49:27;;;;;;;28.67;27.33;;;14.60;99.90;;;;;;5048771;28;20060;-87
2024/03/18 02:51:53;;;;;;;25.80;24.58;;;14.60;99.90;;;;;;5052952;28;20036;-86
2024/03/18 02:54:19;;;;;;;26.38;25.15;;;14.70;99.90;;;;;;5049471;28;20048;-85
2024/03/18 02:56:45;;;;;;;35.42;33.75;;;14.70;99.90;;;;;;5034852;28;20032;-86
2024/03/18 02:59:11;;;;;;;33.75;32.15;;;14.60;99.90;;;;;;5050411;28;20025;-87
2024/03/18 03:01:37;;;;;;;32.58;31.02;;;14.60;99.90;;;;;;5041009;28;20037;-87
2024/03/18 03:04:03;;;;;;;26.60;25.33;;;14.70;99.90;;;;;;5030373;28;20481;-88
2024/03/18 03:06:29;;;;;;;32.28;30.70;;;14.80;99.90;;;;;;5028089;28;20045;-88
2024/03/18 03:08:57;;;;;;;32.00;30.45;;;14.80;99.90;;;;;;5044145;28;20500;-87
2024/03/18 03:11:23;;;;;;;39.95;38.03;;;14.90;99.90;;;;;;5040283;28;20046;-88
2024/03/18 03:13:49;;;;;;;39.95;38.05;;;14.90;99.90;;;;;;5050531;28;20437;-90
2024/03/18 03:16:15;;;;;;;61.92;58.97;;;14.90;99.90;;;;;;5036168;28;20052;-87
2024/03/18 03:18:41;;;;;;;89.32;85.07;;;14.90;99.90;;;;;;5033120;28;20021;-88
2024/03/18 03:21:10;;;;;;;79.47;75.68;;;15.00;99.90;;;;;;5033207;28;20037;-86
2024/03/18 03:23:36;;;;;;;104.72;99.70;;;14.90;99.90;;;;;;5032599;28;20025;-88
2024/03/18 03:26:03;;;;;;;89.50;85.28;;;14.80;99.90;;;;;;5045851;28;20394;-87
2024/03/18 03:28:29;;;;;;;147.90;140.68;;;14.80;99.90;;;;;;5053221;28;20033;-87
2024/03/18 03:31:05;;;;;;;107.38;102.25;;;14.90;99.90;;;;;;5044875;28;20045;-89
2024/03/18 03:33:35;;;;;;;118.38;112.70;;;14.90;99.90;;;;;;5031899;28;20450;-87
2024/03/18 03:36:01;;;;;;;112.07;106.70;;;14.90;99.90;;;;;;5043835;28;20034;-87
2024/03/18 03:38:28;;;;;;;114.20;108.70;;;14.90;99.90;;;;;;5049770;28;20041;-72
2024/03/18 03:40:54;;;;;;;104.85;99.85;;;14.80;99.90;;;;;;5034863;28;20382;-73
2024/03/18 03:43:21;;;;;;;125.90;119.82;;;14.80;99.90;;;;;;5034533;28;20056;-73
2024/03/18 03:45:59;;;;;;;88.70;84.53;;;14.80;99.90;;;;;;5037344;28;20026;-73
2024/03/18 03:48:26;;;;;;;27.65;26.35;;;14.90;99.90;;;;;;5052515;28;20059;-72
2024/03/18 03:50:53;;;;;;;37.38;35.60;;;14.90;99.90;;;;;;5046563;28;20029;-73
2024/03/18 03:53:19;;;;;;;56.13;53.45;;;14.90;99.90;;;;;;5050592;28;20045;-72
2024/03/18 03:55:46;;;;;;;43.90;41.83;;;14.80;99.90;;;;;;5047819;28;20037;-73
2024/03/18 03:58:12;;;;;;;58.30;55.50;;;14.80;99.90;;;;;;5051338;28;20034;-73
2024/03/18 04:00:45;;;;;;;50.97;48.58;;;14.80;99.90;;;;;;5047797;28;20030;-73
2024/03/18 04:03:20;;;;;;;31.23;29.75;;;14.90;99.90;;;;;;5045186;28;20029;-73
2024/03/18 04:05:47;;;;;;;42.22;40.25;;;14.90;99.90;;;;;;5047719;28;20398;-72
2024/03/18 04:08:13;;;;;;;37.58;35.83;;;14.90;99.90;;;;;;5049296;28;20037;-73
2024/03/18 04:10:39;;;;;;;19.17;18.27;;;14.90;99.90;;;;;;5043391;28;20064;-73
2024/03/18 04:13:05;;;;;;;21.42;20.42;;;14.90;99.90;;;;;;5037352;28;20033;-73
2024/03/18 04:15:34;;;;;;;32.00;30.50;;;14.90;99.90;;;;;;5047322;28;20041;-73
2024/03/18 04:18:01;;;;;;;29.25;27.90;;;14.90;99.90;;;;;;5049669;28;20045;-73
2024/03/18 04:20:27;;;;;;;52.28;49.83;;;14.90;99.90;;;;;;5037163;28;20045;-73
2024/03/18 04:22:56;;;;;;;74.10;70.63;;;14.90;99.90;;;;;;5044886;28;20040;-74
2024/03/18 04:25:23;;;;;;;85.57;81.53;;;14.80;99.90;;;;;;5050072;28;20032;-73
2024/03/18 04:27:49;;;;;;;75.35;71.80;;;14.90;99.90;;;;;;5046268;28;20032;-73
2024/03/18 04:30:17;;;;;;;105.15;100.18;;;14.90;99.90;;;;;;5049959;28;20052;-74
2024/03/18 04:32:44;;;;;;;98.65;94.00;;;14.90;99.90;;;;;;5045028;28;20025;-73
2024/03/18 04:35:10;;;;;;;121.55;115.72;;;14.90;99.90;;;;;;5043868;28;20418;-74
2024/03/18 04:37:45;;;;;;;93.85;89.43;;;14.80;99.90;;;;;;5052453;28;20064;-73
2024/03/18 04:40:15;;;;;;;90.32;86.07;;;14.80;99.90;;;;;;5053984;28;20060;-87
2024/03/18 04:42:42;;;;;;;98.63;93.97;;;14.80;99.90;;;;;;5038400;28;20043;-88
2024/03/18 04:45:09;;;;;;;106.60;100.70;;;14.80;99.90;;;;;;5040166;28;20037;-87
2024/03/18 04:47:36;;;;;;;119.07;113.32;;;14.70;99.90;;;;;;5036717;28;20390;-88
2024/03/18 04:50:03;;;;;;;87.18;83.07;;;14.50;99.90;;;;;;5035167;28;20395;-86
2024/03/18 04:52:29;;;;;;;78.05;74.38;;;14.60;99.90;;;;;;5035046;28;20045;-86
2024/03/18 04:54:55;;;;;;;26.67;25.45;;;14.50;99.90;;;;;;5034813;28;20057;-86
2024/03/18 04:57:22;;;;;;;53.45;50.95;;;14.60;99.90;;;;;;5034541;28;20049;-86
2024/03/18 04:59:48;;;;;;;34.03;32.42;;;14.70;99.90;;;;;;5044608;28;20048;-86
2024/03/18 05:02:14;;;;;;;27.13;25.88;;;14.70;99.90;;;;;;5035382;28;20034;-86
2024/03/18 05:04:40;;;;;;;29.65;28.27;;;14.70;99.90;;;;;;5033613;28;20033;-85
2024/03/18 05:07:06;;;;;;;25.77;24.60;;;14.70;99.90;;;;;;5033716;28;20502;-85
2024/03/18 05:09:34;;;;;;;34.58;32.97;;;14.70;99.90;;;;;;5033581;28;20623;-85
2024/03/18 05:12:00;;;;;;;35.20;33.58;;;14.60;99.90;;;;;;5033592;28;20056;-85
2024/03/18 05:14:26;;;;;;;20.80;19.85;;;14.60;99.90;;;;;;5033414;28;20101;-88
2024/03/18 05:16:52;;;;;;;26.52;25.30;;;14.50;99.90;;;;;;5043350;28;20470;-87
2024/03/18 05:19:18;;;;;;;19.77;18.88;;;14.50;99.90;;;;;;5037175;28;20037;-87
2024/03/18 05:21:44;;;;;;;32.10;30.60;;;14.50;99.90;;;;;;5033253;28;20041;-88
2024/03/18 05:24:11;;;;;;;32.08;30.58;;;14.50;99.90;;;;;;5032312;28;20033;-88
2024/03/18 05:26:37;;;;;;;26.58;25.35;;;14.40;99.90;;;;;;5032876;28;20033;-84
2024/03/18 05:29:03;;;;;;;16.55;15.77;;;14.40;99.90;;;;;;5032778;28;20026;-84
2024/03/18 05:31:29;;;;;;;16.90;16.10;;;14.40;99.90;;;;;;5030696;28;20501;-84
2024/03/18 05:33:56;;;;;;;16.35;15.60;;;14.40;99.90;;;;;;5031734;28;20033;-84
2024/03/18 05:36:22;;;;;;;17.02;16.23;;;14.20;99.90;;;;;;5033195;28;20050;-85
2024/03/18 05:38:48;;;;;;;15.48;14.77;;;14.30;99.90;;;;;;5032308;28;20455;-85
2024/03/18 05:41:14;;;;;;;15.45;14.75;;;14.20;99.90;;;;;;5031640;28;20030;-82
2024/03/18 05:43:40;;;;;;;15.73;15.02;;;14.30;99.90;;;;;;5031879;28;20052;-80
2024/03/18 05:46:06;;;;;;;26.80;25.55;;;14.30;99.90;;;;;;5031307;28;20041;-81
2024/03/18 05:48:32;;;;;;;28.23;26.90;;;14.30;99.90;;;;;;5032122;28;20026;-82
2024/03/18 05:50:58;;;;;;;16.73;15.93;;;14.30;99.90;;;;;;5041873;28;20033;-84
2024/03/18 05:53:25;;;;;;;24.55;23.45;;;14.30;99.90;;;;;;5041399;28;20029;-84
2024/03/18 05:55:51;;;;;;;25.55;24.35;;;14.30;99.90;;;;;;5047473;28;20060;-85
2024/03/18 05:58:17;;;;;;;16.60;15.80;;;14.30;99.90;;;;;;5033026;28;20049;-84
2024/03/18 06:00:43;;;;;;;16.98;16.17;;;14.40;99.90;;;;;;5031734;28;20037;-84
2024/03/18 06:03:09;;;;;;;18.23;17.40;;;14.40;99.90;;;;;;5031823;28;20030;-85
2024/03/18 06:05:35;;;;;;;15.43;14.73;;;14.40;99.90;;;;;;5032221;28;20405;-84
2024/03/18 06:08:02;;;;;;;22.30;21.27;;;14.40;99.90;;;;;;5032186;28;20033;-84
2024/03/18 06:10:28;;;;;;;28.42;27.10;;;14.40;99.90;;;;;;5031919;28;20045;-84
2024/03/18 06:12:54;;;;;;;19.23;18.33;;;14.40;99.90;;;;;;5032883;28;20056;-84
2024/03/18 06:15:20;;;;;;;24.17;23.05;;;14.40;99.90;;;;;;5036316;28;20073;-84
2024/03/18 06:17:46;;;;;;;21.85;20.85;;;14.40;99.90;;;;;;5036003;28;20052;-85
2024/03/18 06:20:14;;;;;;;17.50;16.70;;;14.40;99.90;;;;;;5035758;28;20059;-84
2024/03/18 06:22:40;;;;;;;21.77;20.77;;;14.40;99.90;;;;;;5035956;28;20371;-84
2024/03/18 06:27:51;;;;;;;16.80;16.00;;;14.50;99.90;;;;;;5042564;28;20041;-85
2024/03/18 06:30:18;;;;;;;17.45;16.65;;;14.50;99.90;;;;;;5034843;28;20052;-80
2024/03/18 06:32:44;;;;;;;48.80;46.47;;;14.50;99.90;;;;;;5036331;28;20406;-85
2024/03/18 06:35:10;;;;;;;17.83;17.02;;;14.50;99.90;;;;;;5050624;28;20052;-72
2024/03/18 06:37:36;;;;;;;19.27;18.38;;;14.50;99.90;;;;;;5035618;28;20040;-72
2024/03/18 06:40:03;;;;;;;20.42;19.48;;;14.50;99.90;;;;;;5033923;28;20048;-72
2024/03/18 06:42:29;;;;;;;20.85;19.88;;;14.60;99.90;;;;;;5034972;28;20041;-73
2024/03/18 06:44:55;;;;;;;19.70;18.80;;;14.60;99.90;;;;;;5035076;28;20041;-73
2024/03/18 06:47:21;;;;;;;18.25;17.42;;;14.60;99.90;;;;;;5035180;28;20037;-72
2024/03/18 06:49:47;;;;;;;36.58;34.88;;;14.60;99.90;;;;;;5035941;28;20033;-73
2024/03/18 06:52:14;;;;;;;23.92;22.80;;;14.60;99.90;;;;;;5054317;28;20032;-73
2024/03/18 06:54:40;;;;;;;33.05;31.55;;;14.70;99.90;;;;;;5035445;28;20045;-73
2024/03/18 06:57:07;;;;;;;21.60;20.60;;;14.50;99.90;;;;;;5034443;28;20025;-74
2024/03/18 06:59:34;;;;;;;33.35;31.80;;;14.50;99.90;;;;;;5035058;28;20029;-73
2024/03/18 07:02:00;;;;;;;29.77;28.38;;;14.60;99.90;;;;;;5034361;28;20413;-73
2024/03/18 07:04:26;;;;;;;29.05;27.70;;;14.60;99.90;;;;;;5035265;28;20042;-73
2024/03/18 07:06:52;;;;;;;25.33;24.15;;;14.60;99.90;;;;;;5034819;28;20032;-73
2024/03/18 07:09:19;;;;;;;21.92;20.92;;;14.60;99.90;;;;;;5034956;28;20394;-73
2024/03/18 07:11:45;;;;;;;22.88;21.80;;;14.70;99.90;;;;;;5034957;28;20402;-73
2024/03/18 07:14:13;;;;;;;21.38;20.38;;;14.70;99.90;;;;;;5034548;28;20129;-74
2024/03/18 07:16:40;;;;;;;20.35;19.40;;;14.70;99.90;;;;;;5033189;28;20049;-72
2024/03/18 07:19:06;;;;;;;18.88;17.98;;;14.80;99.90;;;;;;5035217;28;20029;-72
2024/03/18 07:21:32;;;;;;;19.63;18.73;;;14.80;99.90;;;;;;5034149;28;20044;-72
2024/03/18 07:24:01;;;;;;;19.17;18.27;;;14.80;99.90;;;;;;5034083;28;20034;-74
2024/03/18 07:26:28;;;;;;;18.60;17.73;;;14.80;99.90;;;;;;5031776;28;20032;-73
2024/03/18 07:28:54;;;;;;;20.52;19.58;;;14.80;99.90;;;;;;5034416;28;20033;-73
2024/03/18 07:31:21;;;;;;;20.17;19.27;;;14.90;99.90;;;;;;5034122;28;20034;-73
2024/03/18 07:33:47;;;;;;;21.13;20.13;;;14.90;99.90;;;;;;5034198;28;20362;-73
2024/03/18 07:36:13;;;;;;;55.08;52.47;;;14.90;99.90;;;;;;5034090;28;20037;-88
2024/03/18 07:38:39;;;;;;;21.40;20.40;;;15.00;99.90;;;;;;5035220;28;20363;-88
2024/03/18 07:41:05;;;;;;;22.90;21.83;;;15.00;99.90;;;;;;5035057;28;20021;-87
2024/03/18 07:43:31;;;;;;;21.67;20.67;;;15.00;99.90;;;;;;5036781;28;20045;-89
2024/03/18 07:45:57;;;;;;;29.27;27.92;;;15.00;99.90;;;;;;5041571;28;20040;-89
2024/03/18 07:48:24;;;;;;;30.48;29.08;;;14.90;99.90;;;;;;5035492;28;20022;-90
2024/03/18 07:50:56;;;;;;;25.15;23.95;;;14.90;99.90;;;;;;5035424;28;20509;-90
2024/03/18 07:53:22;;;;;;;27.35;26.05;;;15.00;99.90;;;;;;5032267;28;20044;-87
2024/03/18 07:55:48;;;;;;;39.63;37.78;;;15.10;99.90;;;;;;5035484;28;20041;-86
2024/03/18 07:58:14;;;;;;;40.78;38.88;;;15.10;99.90;;;;;;5033572;28;20033;-90
2024/03/18 08:00:40;;;;;;;48.20;45.90;;;15.10;99.90;;;;;;5034622;28;20092;-89
2024/03/18 08:03:07;;;;;;;35.53;33.85;;;15.20;99.90;;;;;;5046138;28;20025;-89
2024/03/18 08:05:33;;;;;;;42.13;40.15;;;15.30;99.90;;;;;;5052580;28;20041;-87
2024/03/18 08:07:59;;;;;;;30.77;29.35;;;15.30;99.90;;;;;;5035251;28;20371;-88
2024/03/18 08:10:25;;;;;;;33.88;32.30;;;15.40;99.90;;;;;;5034520;28;20025;-87
2024/03/18 08:12:51;;;;;;;25.63;24.42;;;15.30;99.90;;;;;;5035139;28;20033;-89
2024/03/18 08:15:17;;;;;;;29.55;28.17;;;15.30;99.90;;;;;;5035111;28;20034;-88
2024/03/18 08:17:43;;;;;;;31.77;30.30;;;15.30;99.90;;;;;;5035346;28;20044;-88
2024/03/18 08:20:10;;;;;;;27.77;26.48;;;15.20;99.90;;;;;;5049796;28;20032;-87
2024/03/18 08:22:36;;;;;;;29.25;27.83;;;15.30;99.90;;;;;;5034304;28;20037;-88
2024/03/18 08:25:02;;;;;;;28.40;27.05;;;15.40;99.90;;;;;;5045753;28;20037;-80
2024/03/18 08:27:32;;;;;;;26.17;24.95;;;15.40;99.90;;;;;;5034683;28;20049;-87
2024/03/18 08:29:58;;;;;;;28.90;27.55;;;15.50;99.90;;;;;;5040201;28;20030;-89
2024/03/18 08:32:24;;;;;;;47.10;44.88;;;15.40;99.90;;;;;;5032498;28;20401;-88
2024/03/18 08:34:50;;;;;;;32.72;31.20;;;15.30;99.90;;;;;;5037926;28;20033;-88
2024/03/18 08:37:21;;;;;;;27.33;26.05;;;15.40;99.90;;;;;;5036105;28;20041;-89
2024/03/18 08:39:47;;;;;;;34.37;32.73;;;15.50;99.90;;;;;;5047698;28;20074;-87
2024/03/18 08:42:14;;;;;;;37.03;35.28;;;15.60;99.90;;;;;;5036239;28;20291;-84
2024/03/18 08:44:40;;;;;;;39.08;37.28;;;15.70;99.90;;;;;;5049096;28;20057;-86
2024/03/18 08:47:06;;;;;;;34.15;32.55;;;15.80;99.90;;;;;;5036196;28;20041;-86
2024/03/18 08:49:32;;;;;;;28.52;27.20;;;15.70;99.90;;;;;;5033081;28;20037;-73
2024/03/18 08:51:59;;;;;;;30.05;28.63;;;15.70;99.90;;;;;;5033107;28;20050;-73
2024/03/18 08:54:25;;;;;;;39.72;37.85;;;15.80;99.90;;;;;;5033958;28;20029;-72
2024/03/18 08:56:51;;;;;;;29.10;27.70;;;15.90;99.90;;;;;;5032533;28;20056;-71
2024/03/18 08:59:17;;;;;;;32.03;30.48;;;15.80;99.90;;;;;;5033225;28;20033;-71
2024/03/18 09:01:43;;;;;;;31.17;29.73;;;15.90;99.90;;;;;;5032377;28;20041;-71
2024/03/18 09:04:09;;;;;;;27.98;26.67;;;16.00;99.90;;;;;;5033625;28;20521;-71
2024/03/18 09:06:35;;;;;;;38.97;37.17;;;15.90;99.90;;;;;;5048126;28;20041;-72
2024/03/18 09:09:01;;;;;;;45.22;43.13;;;16.00;99.90;;;;;;5033235;28;20042;-72
2024/03/18 09:11:27;;;;;;;34.15;32.55;;;16.10;99.90;;;;;;5037958;28;20390;-71
2024/03/18 09:13:54;;;;;;;24.60;23.48;;;16.10;99.90;;;;;;5052988;28;20025;-73
2024/03/18 09:16:20;;;;;;;30.27;28.88;;;16.20;99.90;;;;;;5041636;28;20418;-70
2024/03/18 09:18:46;;;;;;;42.05;40.05;;;16.20;99.90;;;;;;5045458;28;20029;-72
2024/03/18 09:21:12;;;;;;;32.70;31.20;;;16.20;99.90;;;;;;5037807;28;20037;-72
2024/03/18 09:23:38;;;;;;;30.73;29.33;;;16.20;99.90;;;;;;5037378;28;20033;-72
2024/03/18 09:26:04;;;;;;;37.67;35.90;;;16.20;99.90;;;;;;5045413;28;20033;-72
2024/03/18 09:28:30;;;;;;;77.20;73.57;;;16.30;99.90;;;;;;5047334;28;20104;-72
2024/03/18 09:31:03;;;;;;;98.05;93.38;;;16.30;99.90;;;;;;5037928;28;20121;-72
2024/03/18 09:33:29;;;;;;;45.50;43.35;;;16.60;99.90;;;;;;5028409;28;20034;-73
2024/03/18 09:35:56;;;;;;;21.80;20.80;;;16.80;99.90;;;;;;5016117;28;20045;-72
2024/03/18 09:38:22;;;;;;;41.00;39.08;;;16.80;99.90;;;;;;5012929;28;20398;-72
2024/03/18 09:40:48;;;;;;;112.55;107.15;;;16.80;99.90;;;;;;5012035;28;20364;-72
2024/03/18 09:43:14;;;;;;;122.07;116.18;;;16.80;99.90;;;;;;5011551;28;20050;-72
2024/03/18 09:45:40;;;;;;;30.40;28.98;;;16.80;99.90;;;;;;5015845;28;20042;-72
2024/03/18 09:48:11;;;;;;;24.30;23.17;;;16.80;99.90;;;;;;5032674;28;20454;-72
2024/03/18 09:50:37;;;;;;;37.88;36.05;;;16.90;99.90;;;;;;5047505;28;20032;-72
2024/03/18 09:53:04;;;;;;;28.00;26.60;;;16.80;99.90;;;;;;5039684;28;20038;-84
2024/03/18 09:55:30;;;;;;;26.10;24.88;;;16.90;99.90;;;;;;5052444;28;20064;-87
2024/03/18 09:57:56;;;;;;;105.68;100.65;;;17.00;99.90;;;;;;5031301;28;20025;-87
2024/03/18 10:00:23;;;;;;;104.43;99.47;;;17.10;99.90;;;;;;5028678;28;20060;-86
2024/03/18 10:02:49;;;;;;;124.97;118.82;;;17.10;99.90;;;;;;5027853;28;20053;-87
2024/03/18 10:05:15;;;;;;;101.75;96.75;;;17.20;99.90;;;;;;5011861;28;20052;-87
2024/03/18 10:07:43;;;;;;;86.72;82.57;;;17.40;99.90;;;;;;5011878;28;20037;-86
2024/03/18 10:10:17;;;;;;;45.47;43.25;;;17.60;99.90;;;;;;5010592;28;20042;-86
2024/03/18 10:12:43;;;;;;;39.47;37.60;;;17.60;99.90;;;;;;5011567;28;20030;-87
2024/03/18 10:15:13;;;;;;;30.70;29.20;;;17.50;99.90;;;;;;5010286;28;20391;-86
2024/03/18 10:17:42;;;;;;;29.33;27.98;;;17.50;99.90;;;;;;5011155;28;20037;-86
2024/03/18 10:20:21;;;;;;;52.78;50.28;;;17.50;99.90;;;;;;5011818;28;20033;-86
2024/03/18 10:22:48;;;;;;;37.10;35.38;;;17.70;99.90;;;;;;5011516;28;20038;-86
2024/03/18 10:25:21;;;;;;;33.22;31.65;;;17.80;99.90;;;;;;5010681;28;20034;-86
2024/03/18 10:27:50;;;;;;;61.35;58.40;;;17.90;99.90;;;;;;5012457;28;20034;-85
2024/03/18 10:30:17;;;;;;;47.78;45.47;;;17.90;99.90;;;;;;5011992;28;20088;-84
2024/03/18 10:32:43;;;;;;;124.63;118.63;;;17.80;99.90;;;;;;5030691;28;20049;-85
2024/03/18 10:35:26;;;;;;;72.53;69.10;;;17.70;99.90;;;;;;5037863;28;20030;-85
2024/03/18 10:37:56;;;;;;;27.95;26.65;;;17.70;99.90;;;;;;5039832;28;20040;-86
2024/03/18 10:40:29;;;;;;;143.93;136.93;;;17.90;99.90;;;;;;5018607;28;20041;-86
2024/03/18 10:43:00;;;;;;;276.27;262.20;;;17.80;99.90;;;;;;5047970;28;20052;-85
2024/03/18 10:45:27;;;;;;;91.03;86.63;;;17.80;99.90;;;;;;5037550;28;20034;-86
2024/03/18 10:47:54;;;;;;;224.50;213.27;;;17.90;99.90;;;;;;5030114;28;20034;-86
2024/03/18 10:50:21;;;;;;;199.60;189.77;;;17.90;99.90;;;;;;5036176;28;20209;-87
2024/03/18 10:52:47;;;;;;;123.28;116.75;;;18.10;99.90;;;;;;5030032;28;20026;-87
2024/03/18 10:55:17;;;;;;;239.90;228.02;;;18.30;99.90;;;;;;5036162;28;20052;-85
2024/03/18 10:57:44;;;;;;;133.68;127.20;;;18.40;99.90;;;;;;5031875;28;20038;-87
2024/03/18 11:00:11;;;;;;;150.63;143.32;;;18.50;99.90;;;;;;5031949;28;20037;-85
2024/03/18 11:02:39;;;;;;;1999.90;999.90;;;18.80;99.90;;;;;;5034187;28;20381;-85
2024/03/18 11:05:06;;;;;;;1999.90;999.90;;;19.00;99.90;;;;;;5034026;28;20028;-85
2024/03/18 11:07:35;;;;;;;1999.90;999.90;;;19.10;99.90;;;;;;5034985;28;20053;-86
2024/03/18 11:10:10;;;;;;;1999.90;999.90;;;19.10;99.90;;;;;;5033545;28;20036;-72
2024/03/18 11:12:37;;;;;;;1999.90;999.90;;;19.30;99.90;;;;;;5033508;28;20045;-72
2024/03/18 11:15:07;;;;;;;1999.90;999.90;;;19.20;99.90;;;;;;5035033;28;20057;-71
2024/03/18 11:17:43;;;;;;;1999.90;999.90;;;19.00;99.90;;;;;;5035159;28;20046;-74
2024/03/18 11:20:21;;;;;;;1999.90;999.90;;;18.90;99.90;;;;;;5034232;28;20355;-73
2024/03/18 11:22:55;;;;;;;1999.90;999.90;;;18.80;99.90;;;;;;5034824;28;20506;-73
2024/03/18 11:25:22;;;;;;;1999.90;999.90;;;18.70;99.90;;;;;;5034340;28;20371;-73
2024/03/18 11:27:49;;;;;;;1999.90;999.90;;;18.70;99.90;;;;;;5032015;28;20049;-73
2024/03/18 11:30:29;;;;;;;1999.90;999.90;;;18.70;99.90;;;;;;5033902;28;20037;-73
2024/03/18 11:32:56;;;;;;;1999.90;999.90;;;18.70;99.90;;;;;;5034266;28;20045;-73
2024/03/18 11:35:23;;;;;;;1999.90;999.90;;;18.60;99.90;;;;;;5033618;28;20026;-73
2024/03/18 11:37:49;;;;;;;1999.90;999.90;;;18.50;99.90;;;;;;5034324;28;20389;-73
2024/03/18 11:40:17;;;;;;;1999.90;999.90;;;18.30;99.90;;;;;;5033895;28;20030;-72
2024/03/18 11:42:45;;;;;;;1999.90;999.90;;;18.30;99.90;;;;;;5034269;28;20021;-72
2024/03/18 11:45:21;;;;;;;1999.90;999.90;;;18.50;99.90;;;;;;5033702;28;20128;-73
2024/03/18 11:47:48;;;;;;;1999.90;999.90;;;18.40;99.90;;;;;;5034624;28;20041;-73
2024/03/18 11:50:14;;;;;;;1999.90;999.90;;;18.50;99.90;;;;;;5034298;28;20386;-73
2024/03/18 11:52:41;;;;;;;1999.90;999.90;;;18.70;99.90;;;;;;5034462;28;20033;-72
2024/03/18 11:55:10;;;;;;;1999.90;999.90;;;18.90;99.90;;;;;;5033817;28;20041;-73
2024/03/18 11:57:37;;;;;;;1999.90;999.90;;;19.00;99.90;;;;;;5032193;28;20044;-72
2024/03/18 12:00:11;;;;;;;1999.90;999.90;;;18.90;99.90;;;;;;5033804;28;20356;-72
2024/03/18 12:02:39;;;;;;;1999.90;999.90;;;19.00;99.90;;;;;;5032646;28;20042;-64
2024/03/18 12:05:05;;;;;;;1999.90;999.90;;;19.20;99.90;;;;;;5033482;28;20410;-63
2024/03/18 12:07:32;;;;;;;1999.90;999.90;;;19.40;99.90;;;;;;5034203;28;20041;-63
2024/03/18 12:09:59;;;;;;;1999.90;999.90;;;19.50;99.90;;;;;;5033935;28;20485;-63
2024/03/18 12:12:25;;;;;;;1999.90;999.90;;;19.30;99.90;;;;;;5032763;28;20025;-63
2024/03/18 12:14:51;;;;;;;1999.90;999.90;;;19.20;99.90;;;;;;5031849;28;20049;-72
2024/03/18 12:17:17;;;;;;;1999.90;999.90;;;19.10;99.90;;;;;;5031359;28;20060;-73
2024/03/18 12:19:51;;;;;;;1999.90;999.90;;;19.20;99.90;;;;;;5033362;28;20033;-71
2024/03/18 12:22:21;;;;;;;1999.90;999.90;;;19.30;99.90;;;;;;5033300;28;20045;-71
2024/03/18 12:30:22;;;;;;;1999.90;999.90;;;19.40;99.90;;;;;;5037642;28;20033;-72